TAF and METAR

METAR for King Abdulaziz International Airport

OEJN 170300Z 33004KT CAVOK 29/25 Q1005 NOSIG
Report created 17. jul 05:00
wind 4 knots from NNW (330°) Clear sky Temperature 29° with dewpoint at 25° (Humidity 79.11%) Pressure 1005 hPa no significant weather change expected the next couple of hours

TAF for King Abdulaziz International Airport

TAF OEJN 162300Z 1700/1806 VRB03KT 8000 SKC BECMG 1706/1708 29014KT
Report created 17. jul 01:00

between 17. jul 02:00 - 18. jul 08:00

wind 3 knots from various directions visibility 8000 meters
King Abdulaziz International Airport in Saudi Arabia at 15m

Latest 5 airports